sensor_id;sensor_type;location;lat;lon;timestamp;temperature;humidity
18506;DHT22;9382;53.242;10.438;2022-09-17T00:01:04;11.90;99.90
18506;DHT22;9382;53.242;10.438;2022-09-17T00:03:31;11.90;99.90
18506;DHT22;9382;53.242;10.438;2022-09-17T00:06:00;11.90;99.90
18506;DHT22;9382;53.242;10.438;2022-09-17T00:08:27;11.90;99.90
18506;DHT22;9382;53.242;10.438;2022-09-17T00:10:54;11.90;99.90
18506;DHT22;9382;53.242;10.438;2022-09-17T00:13:21;12.00;99.90
18506;DHT22;9382;53.242;10.438;2022-09-17T00:15:49;12.00;99.90
18506;DHT22;9382;53.242;10.438;2022-09-17T00:18:18;11.90;99.90
18506;DHT22;9382;53.242;10.438;2022-09-17T00:20:46;11.90;99.90
18506;DHT22;9382;53.242;10.438;2022-09-17T00:23:13;12.00;99.90
18506;DHT22;9382;53.242;10.438;2022-09-17T00:25:42;12.00;99.90
18506;DHT22;9382;53.242;10.438;2022-09-17T00:28:09;11.90;99.90
18506;DHT22;9382;53.242;10.438;2022-09-17T00:30:38;11.80;99.90
18506;DHT22;9382;53.242;10.438;2022-09-17T00:33:05;11.80;99.90
18506;DHT22;9382;53.242;10.438;2022-09-17T00:35:33;11.80;99.90
18506;DHT22;9382;53.242;10.438;2022-09-17T00:38:00;11.70;99.90
18506;DHT22;9382;53.242;10.438;2022-09-17T00:40:27;11.80;99.90
18506;DHT22;9382;53.242;10.438;2022-09-17T00:42:54;11.80;99.90
18506;DHT22;9382;53.242;10.438;2022-09-17T00:45:21;11.70;99.90
18506;DHT22;9382;53.242;10.438;2022-09-17T00:47:52;11.80;99.90
18506;DHT22;9382;53.242;10.438;2022-09-17T00:50:24;11.80;99.90
18506;DHT22;9382;53.242;10.438;2022-09-17T00:52:57;11.90;99.90
18506;DHT22;9382;53.242;10.438;2022-09-17T00:55:28;11.90;99.90
18506;DHT22;9382;53.242;10.438;2022-09-17T00:57:58;11.90;99.90
18506;DHT22;9382;53.242;10.438;2022-09-17T01:00:30;11.80;99.90
18506;DHT22;9382;53.242;10.438;2022-09-17T01:02:57;11.80;99.90
18506;DHT22;9382;53.242;10.438;2022-09-17T01:05:30;11.80;99.90
18506;DHT22;9382;53.242;10.438;2022-09-17T01:08:04;11.70;99.90
18506;DHT22;9382;53.242;10.438;2022-09-17T01:10:56;11.80;99.90
18506;DHT22;9382;53.242;10.438;2022-09-17T01:13:33;11.80;99.90
18506;DHT22;9382;53.242;10.438;2022-09-17T01:16:07;11.70;99.90
18506;DHT22;9382;53.242;10.438;2022-09-17T01:18:44;11.70;99.90
18506;DHT22;9382;53.242;10.438;2022-09-17T01:24:44;11.70;99.90
18506;DHT22;9382;53.242;10.438;2022-09-17T01:30:37;11.60;99.90
18506;DHT22;9382;53.242;10.438;2022-09-17T01:33:10;11.60;99.90
18506;DHT22;9382;53.242;10.438;2022-09-17T01:35:45;11.50;99.90
18506;DHT22;9382;53.242;10.438;2022-09-17T01:38:17;11.50;99.90
18506;DHT22;9382;53.242;10.438;2022-09-17T01:40:52;11.50;99.90
18506;DHT22;9382;53.242;10.438;2022-09-17T01:43:24;11.40;99.90
18506;DHT22;9382;53.242;10.438;2022-09-17T01:45:56;11.40;99.90
18506;DHT22;9382;53.242;10.438;2022-09-17T01:48:28;11.30;99.90
18506;DHT22;9382;53.242;10.438;2022-09-17T01:51:03;11.30;99.90
18506;DHT22;9382;53.242;10.438;2022-09-17T01:53:35;11.20;99.90
18506;DHT22;9382;53.242;10.438;2022-09-17T01:56:05;11.20;99.90
18506;DHT22;9382;53.242;10.438;2022-09-17T01:58:36;11.20;99.90
18506;DHT22;9382;53.242;10.438;2022-09-17T02:01:08;11.10;99.90
18506;DHT22;9382;53.242;10.438;2022-09-17T02:03:41;11.10;99.90
18506;DHT22;9382;53.242;10.438;2022-09-17T02:06:13;11.10;99.90
18506;DHT22;9382;53.242;10.438;2022-09-17T02:08:45;11.00;99.90
18506;DHT22;9382;53.242;10.438;2022-09-17T02:11:14;11.00;99.90
18506;DHT22;9382;53.242;10.438;2022-09-17T02:13:46;11.00;99.90
18506;DHT22;9382;53.242;10.438;2022-09-17T02:16:18;10.90;99.90
18506;DHT22;9382;53.242;10.438;2022-09-17T02:18:49;10.90;99.90
18506;DHT22;9382;53.242;10.438;2022-09-17T02:21:26;10.90;99.90
18506;DHT22;9382;53.242;10.438;2022-09-17T02:24:00;10.90;99.90
18506;DHT22;9382;53.242;10.438;2022-09-17T02:26:32;10.90;99.90
18506;DHT22;9382;53.242;10.438;2022-09-17T02:29:04;10.90;99.90
18506;DHT22;9382;53.242;10.438;2022-09-17T02:31:34;10.80;99.90
18506;DHT22;9382;53.242;10.438;2022-09-17T02:34:02;10.80;99.90
18506;DHT22;9382;53.242;10.438;2022-09-17T02:36:30;10.80;99.90
18506;DHT22;9382;53.242;10.438;2022-09-17T02:39:00;10.80;99.90
18506;DHT22;9382;53.242;10.438;2022-09-17T02:41:35;10.80;99.90
18506;DHT22;9382;53.242;10.438;2022-09-17T02:44:11;10.80;99.90
18506;DHT22;9382;53.242;10.438;2022-09-17T02:46:52;10.80;99.90
18506;DHT22;9382;53.242;10.438;2022-09-17T02:49:38;10.80;99.90
18506;DHT22;9382;53.242;10.438;2022-09-17T02:52:15;10.80;99.90
18506;DHT22;9382;53.242;10.438;2022-09-17T02:54:50;10.80;99.90
18506;DHT22;9382;53.242;10.438;2022-09-17T02:57:28;10.70;99.90
18506;DHT22;9382;53.242;10.438;2022-09-17T03:00:05;10.80;99.90
18506;DHT22;9382;53.242;10.438;2022-09-17T03:02:37;10.70;99.90
18506;DHT22;9382;53.242;10.438;2022-09-17T03:05:06;10.70;99.90
18506;DHT22;9382;53.242;10.438;2022-09-17T03:07:34;10.70;99.90
18506;DHT22;9382;53.242;10.438;2022-09-17T03:10:00;10.70;99.90
18506;DHT22;9382;53.242;10.438;2022-09-17T03:12:27;10.80;99.90
18506;DHT22;9382;53.242;10.438;2022-09-17T03:14:54;10.80;99.90
18506;DHT22;9382;53.242;10.438;2022-09-17T03:17:20;10.80;99.90
18506;DHT22;9382;53.242;10.438;2022-09-17T03:19:49;10.80;99.90
18506;DHT22;9382;53.242;10.438;2022-09-17T03:22:15;10.80;99.90
18506;DHT22;9382;53.242;10.438;2022-09-17T03:24:42;10.90;99.90
18506;DHT22;9382;53.242;10.438;2022-09-17T03:27:09;10.90;99.90
18506;DHT22;9382;53.242;10.438;2022-09-17T03:29:35;10.90;99.90
18506;DHT22;9382;53.242;10.438;2022-09-17T03:32:02;10.90;99.90
18506;DHT22;9382;53.242;10.438;2022-09-17T03:34:29;10.90;99.90
18506;DHT22;9382;53.242;10.438;2022-09-17T03:36:57;10.80;99.90
18506;DHT22;9382;53.242;10.438;2022-09-17T03:39:24;10.80;99.90
18506;DHT22;9382;53.242;10.438;2022-09-17T03:41:51;10.90;99.90
18506;DHT22;9382;53.242;10.438;2022-09-17T03:44:18;10.80;99.90
18506;DHT22;9382;53.242;10.438;2022-09-17T03:46:45;10.90;99.90
18506;DHT22;9382;53.242;10.438;2022-09-17T03:49:12;10.90;99.90
18506;DHT22;9382;53.242;10.438;2022-09-17T03:51:39;10.90;99.90
18506;DHT22;9382;53.242;10.438;2022-09-17T03:54:07;10.90;99.90
18506;DHT22;9382;53.242;10.438;2022-09-17T03:56:34;11.00;99.90
18506;DHT22;9382;53.242;10.438;2022-09-17T03:59:01;11.00;99.90
18506;DHT22;9382;53.242;10.438;2022-09-17T04:01:28;11.00;99.90
18506;DHT22;9382;53.242;10.438;2022-09-17T04:03:55;10.90;99.90
18506;DHT22;9382;53.242;10.438;2022-09-17T04:06:21;11.00;99.90
18506;DHT22;9382;53.242;10.438;2022-09-17T04:08:48;11.00;99.90
18506;DHT22;9382;53.242;10.438;2022-09-17T04:11:16;11.00;99.90
18506;DHT22;9382;53.242;10.438;2022-09-17T04:13:43;11.00;99.90
18506;DHT22;9382;53.242;10.438;2022-09-17T04:16:09;11.00;99.90
18506;DHT22;9382;53.242;10.438;2022-09-17T04:18:36;11.00;99.90
18506;DHT22;9382;53.242;10.438;2022-09-17T04:21:03;11.00;99.90
18506;DHT22;9382;53.242;10.438;2022-09-17T04:23:30;11.00;99.90
18506;DHT22;9382;53.242;10.438;2022-09-17T04:25:57;11.00;99.90
18506;DHT22;9382;53.242;10.438;2022-09-17T04:28:25;11.00;99.90
18506;DHT22;9382;53.242;10.438;2022-09-17T04:30:52;11.00;99.90
18506;DHT22;9382;53.242;10.438;2022-09-17T04:33:18;10.90;99.90
18506;DHT22;9382;53.242;10.438;2022-09-17T04:35:45;11.00;99.90
18506;DHT22;9382;53.242;10.438;2022-09-17T04:38:12;11.00;99.90
18506;DHT22;9382;53.242;10.438;2022-09-17T04:40:43;11.00;99.90
18506;DHT22;9382;53.242;10.438;2022-09-17T04:43:11;11.00;99.90
18506;DHT22;9382;53.242;10.438;2022-09-17T04:45:39;10.90;99.90
18506;DHT22;9382;53.242;10.438;2022-09-17T04:48:06;11.00;99.90
18506;DHT22;9382;53.242;10.438;2022-09-17T04:50:33;10.90;99.90
18506;DHT22;9382;53.242;10.438;2022-09-17T04:53:00;10.90;99.90
18506;DHT22;9382;53.242;10.438;2022-09-17T04:55:26;11.00;99.90
18506;DHT22;9382;53.242;10.438;2022-09-17T04:57:53;11.00;99.90
18506;DHT22;9382;53.242;10.438;2022-09-17T05:00:21;11.00;99.90
18506;DHT22;9382;53.242;10.438;2022-09-17T05:02:52;11.00;99.90
18506;DHT22;9382;53.242;10.438;2022-09-17T05:05:20;11.00;99.90
18506;DHT22;9382;53.242;10.438;2022-09-17T05:07:47;11.00;99.90
18506;DHT22;9382;53.242;10.438;2022-09-17T05:10:16;11.00;99.90
18506;DHT22;9382;53.242;10.438;2022-09-17T05:12:47;11.00;99.90
18506;DHT22;9382;53.242;10.438;2022-09-17T05:15:14;10.90;99.90
18506;DHT22;9382;53.242;10.438;2022-09-17T05:17:40;10.90;99.90
18506;DHT22;9382;53.242;10.438;2022-09-17T05:20:09;10.90;99.90
18506;DHT22;9382;53.242;10.438;2022-09-17T05:22:40;11.00;99.90
18506;DHT22;9382;53.242;10.438;2022-09-17T05:25:07;10.90;99.90
18506;DHT22;9382;53.242;10.438;2022-09-17T05:27:34;10.90;99.90
18506;DHT22;9382;53.242;10.438;2022-09-17T05:30:01;10.90;99.90
18506;DHT22;9382;53.242;10.438;2022-09-17T05:32:28;10.90;99.90
18506;DHT22;9382;53.242;10.438;2022-09-17T05:34:54;10.90;99.90
18506;DHT22;9382;53.242;10.438;2022-09-17T05:37:22;10.90;99.90
18506;DHT22;9382;53.242;10.438;2022-09-17T05:39:49;10.80;99.90
18506;DHT22;9382;53.242;10.438;2022-09-17T05:42:16;10.80;99.90
18506;DHT22;9382;53.242;10.438;2022-09-17T05:44:43;10.80;99.90
18506;DHT22;9382;53.242;10.438;2022-09-17T05:47:10;10.80;99.90
18506;DHT22;9382;53.242;10.438;2022-09-17T05:49:37;10.70;99.90
18506;DHT22;9382;53.242;10.438;2022-09-17T05:52:04;10.70;99.90
18506;DHT22;9382;53.242;10.438;2022-09-17T05:54:32;10.80;99.90
18506;DHT22;9382;53.242;10.438;2022-09-17T05:56:58;10.80;99.90
18506;DHT22;9382;53.242;10.438;2022-09-17T05:59:26;10.70;99.90
18506;DHT22;9382;53.242;10.438;2022-09-17T06:01:53;10.70;99.90
18506;DHT22;9382;53.242;10.438;2022-09-17T06:04:20;10.70;99.90
18506;DHT22;9382;53.242;10.438;2022-09-17T06:06:46;10.70;99.90
18506;DHT22;9382;53.242;10.438;2022-09-17T06:09:13;10.70;99.90
18506;DHT22;9382;53.242;10.438;2022-09-17T06:11:41;10.70;99.90
18506;DHT22;9382;53.242;10.438;2022-09-17T06:14:08;10.70;99.90
18506;DHT22;9382;53.242;10.438;2022-09-17T06:16:35;10.70;99.90
18506;DHT22;9382;53.242;10.438;2022-09-17T06:19:02;10.70;99.90
18506;DHT22;9382;53.242;10.438;2022-09-17T06:21:29;10.90;99.90
18506;DHT22;9382;53.242;10.438;2022-09-17T06:23:56;10.90;99.90
18506;DHT22;9382;53.242;10.438;2022-09-17T06:26:22;10.90;99.90
18506;DHT22;9382;53.242;10.438;2022-09-17T06:28:50;10.90;99.90
18506;DHT22;9382;53.242;10.438;2022-09-17T06:31:17;11.00;99.90
18506;DHT22;9382;53.242;10.438;2022-09-17T06:33:44;11.00;99.90
18506;DHT22;9382;53.242;10.438;2022-09-17T06:36:12;10.90;99.90
18506;DHT22;9382;53.242;10.438;2022-09-17T06:38:39;11.00;99.90
18506;DHT22;9382;53.242;10.438;2022-09-17T06:41:06;11.00;99.90
18506;DHT22;9382;53.242;10.438;2022-09-17T06:43:33;11.00;99.90
18506;DHT22;9382;53.242;10.438;2022-09-17T06:46:03;11.00;99.90
18506;DHT22;9382;53.242;10.438;2022-09-17T06:48:32;11.00;99.90
18506;DHT22;9382;53.242;10.438;2022-09-17T06:51:01;11.10;99.90
18506;DHT22;9382;53.242;10.438;2022-09-17T06:53:28;11.10;99.90
18506;DHT22;9382;53.242;10.438;2022-09-17T06:55:56;11.10;99.90
18506;DHT22;9382;53.242;10.438;2022-09-17T06:58:23;11.10;99.90
18506;DHT22;9382;53.242;10.438;2022-09-17T07:00:49;11.10;99.90
18506;DHT22;9382;53.242;10.438;2022-09-17T07:03:17;11.00;99.90
18506;DHT22;9382;53.242;10.438;2022-09-17T07:05:44;11.00;99.90
18506;DHT22;9382;53.242;10.438;2022-09-17T07:08:11;11.00;99.90
18506;DHT22;9382;53.242;10.438;2022-09-17T07:10:38;11.30;99.90
18506;DHT22;9382;53.242;10.438;2022-09-17T07:13:04;11.40;99.90
18506;DHT22;9382;53.242;10.438;2022-09-17T07:15:31;11.40;99.90
18506;DHT22;9382;53.242;10.438;2022-09-17T07:17:58;11.50;99.90
18506;DHT22;9382;53.242;10.438;2022-09-17T07:20:26;11.60;99.90
18506;DHT22;9382;53.242;10.438;2022-09-17T07:22:56;11.80;99.90
18506;DHT22;9382;53.242;10.438;2022-09-17T07:25:24;12.00;99.90
18506;DHT22;9382;53.242;10.438;2022-09-17T07:27:51;12.00;99.90
18506;DHT22;9382;53.242;10.438;2022-09-17T07:30:19;12.10;99.90
18506;DHT22;9382;53.242;10.438;2022-09-17T07:32:46;12.20;99.90
18506;DHT22;9382;53.242;10.438;2022-09-17T07:35:13;12.30;99.90
18506;DHT22;9382;53.242;10.438;2022-09-17T07:37:41;12.20;99.90
18506;DHT22;9382;53.242;10.438;2022-09-17T07:40:08;12.30;99.90
18506;DHT22;9382;53.242;10.438;2022-09-17T07:42:35;12.40;99.90
18506;DHT22;9382;53.242;10.438;2022-09-17T07:45:01;12.50;99.90
18506;DHT22;9382;53.242;10.438;2022-09-17T07:47:28;12.60;99.90
18506;DHT22;9382;53.242;10.438;2022-09-17T07:49:55;12.70;99.90
18506;DHT22;9382;53.242;10.438;2022-09-17T07:52:22;12.90;99.90
18506;DHT22;9382;53.242;10.438;2022-09-17T07:54:50;13.00;99.90
18506;DHT22;9382;53.242;10.438;2022-09-17T07:57:17;13.10;99.90
18506;DHT22;9382;53.242;10.438;2022-09-17T07:59:43;13.30;99.90
18506;DHT22;9382;53.242;10.438;2022-09-17T08:02:11;13.40;99.90
18506;DHT22;9382;53.242;10.438;2022-09-17T08:04:40;13.60;99.90
18506;DHT22;9382;53.242;10.438;2022-09-17T08:07:10;13.70;99.90
18506;DHT22;9382;53.242;10.438;2022-09-17T08:09:37;13.50;99.90
18506;DHT22;9382;53.242;10.438;2022-09-17T08:12:06;13.40;99.90
18506;DHT22;9382;53.242;10.438;2022-09-17T08:14:33;13.30;99.90
18506;DHT22;9382;53.242;10.438;2022-09-17T08:16:59;13.40;99.90
18506;DHT22;9382;53.242;10.438;2022-09-17T08:19:26;13.50;99.90
18506;DHT22;9382;53.242;10.438;2022-09-17T08:21:56;13.60;99.90
18506;DHT22;9382;53.242;10.438;2022-09-17T08:24:23;13.50;99.90
18506;DHT22;9382;53.242;10.438;2022-09-17T08:26:49;13.70;99.90
18506;DHT22;9382;53.242;10.438;2022-09-17T08:29:18;13.40;99.90
18506;DHT22;9382;53.242;10.438;2022-09-17T08:31:44;13.30;99.90
18506;DHT22;9382;53.242;10.438;2022-09-17T08:34:11;13.20;99.90
18506;DHT22;9382;53.242;10.438;2022-09-17T08:36:38;13.10;99.90
18506;DHT22;9382;53.242;10.438;2022-09-17T08:39:05;13.10;99.90
18506;DHT22;9382;53.242;10.438;2022-09-17T08:41:45;13.20;99.90
18506;DHT22;9382;53.242;10.438;2022-09-17T08:44:23;13.60;99.90
18506;DHT22;9382;53.242;10.438;2022-09-17T08:46:52;13.90;99.90
18506;DHT22;9382;53.242;10.438;2022-09-17T08:49:29;14.10;99.90
18506;DHT22;9382;53.242;10.438;2022-09-17T08:52:18;14.10;99.90
18506;DHT22;9382;53.242;10.438;2022-09-17T08:54:54;14.20;99.90
18506;DHT22;9382;53.242;10.438;2022-09-17T08:57:28;14.60;99.90
18506;DHT22;9382;53.242;10.438;2022-09-17T09:00:03;14.70;99.90
18506;DHT22;9382;53.242;10.438;2022-09-17T09:02:47;14.90;99.90
18506;DHT22;9382;53.242;10.438;2022-09-17T09:05:17;14.90;99.90
18506;DHT22;9382;53.242;10.438;2022-09-17T09:07:48;14.90;99.90
18506;DHT22;9382;53.242;10.438;2022-09-17T09:10:19;14.80;99.90
18506;DHT22;9382;53.242;10.438;2022-09-17T09:12:48;14.60;99.90
18506;DHT22;9382;53.242;10.438;2022-09-17T09:15:26;14.30;99.90
18506;DHT22;9382;53.242;10.438;2022-09-17T09:17:56;14.10;99.90
18506;DHT22;9382;53.242;10.438;2022-09-17T09:20:29;13.60;99.90
18506;DHT22;9382;53.242;10.438;2022-09-17T09:23:02;13.30;99.90
18506;DHT22;9382;53.242;10.438;2022-09-17T09:25:40;13.40;99.90
18506;DHT22;9382;53.242;10.438;2022-09-17T09:28:28;13.60;99.90
18506;DHT22;9382;53.242;10.438;2022-09-17T09:31:04;14.00;99.90
18506;DHT22;9382;53.242;10.438;2022-09-17T09:33:36;14.40;99.90
18506;DHT22;9382;53.242;10.438;2022-09-17T09:36:06;14.70;99.90
18506;DHT22;9382;53.242;10.438;2022-09-17T09:38:35;15.00;99.90
18506;DHT22;9382;53.242;10.438;2022-09-17T09:41:08;15.10;99.90
18506;DHT22;9382;53.242;10.438;2022-09-17T09:43:40;14.90;99.90
18506;DHT22;9382;53.242;10.438;2022-09-17T09:46:28;14.80;99.90
18506;DHT22;9382;53.242;10.438;2022-09-17T09:49:04;15.10;99.90
18506;DHT22;9382;53.242;10.438;2022-09-17T09:51:42;15.30;99.90
18506;DHT22;9382;53.242;10.438;2022-09-17T09:54:30;15.30;99.90
18506;DHT22;9382;53.242;10.438;2022-09-17T09:57:03;15.60;99.90
18506;DHT22;9382;53.242;10.438;2022-09-17T09:59:32;15.80;99.90
18506;DHT22;9382;53.242;10.438;2022-09-17T10:02:02;15.90;99.90
18506;DHT22;9382;53.242;10.438;2022-09-17T10:04:29;15.80;99.90
18506;DHT22;9382;53.242;10.438;2022-09-17T10:07:00;15.60;99.90
18506;DHT22;9382;53.242;10.438;2022-09-17T10:09:29;16.00;99.90
18506;DHT22;9382;53.242;10.438;2022-09-17T10:12:02;16.10;99.90
18506;DHT22;9382;53.242;10.438;2022-09-17T10:14:31;16.10;99.90
18506;DHT22;9382;53.242;10.438;2022-09-17T10:17:27;16.10;99.90
18506;DHT22;9382;53.242;10.438;2022-09-17T10:20:14;16.20;99.90
18506;DHT22;9382;53.242;10.438;2022-09-17T10:22:42;16.10;99.90
18506;DHT22;9382;53.242;10.438;2022-09-17T10:25:29;16.20;99.90
18506;DHT22;9382;53.242;10.438;2022-09-17T10:27:58;16.10;99.90
18506;DHT22;9382;53.242;10.438;2022-09-17T10:30:27;15.90;99.90
18506;DHT22;9382;53.242;10.438;2022-09-17T10:33:18;15.50;99.90
18506;DHT22;9382;53.242;10.438;2022-09-17T10:35:58;15.10;99.90
18506;DHT22;9382;53.242;10.438;2022-09-17T10:38:27;14.70;99.90
18506;DHT22;9382;53.242;10.438;2022-09-17T10:41:08;14.40;99.90
18506;DHT22;9382;53.242;10.438;2022-09-17T10:43:36;14.20;99.90
18506;DHT22;9382;53.242;10.438;2022-09-17T10:46:03;14.40;99.90
18506;DHT22;9382;53.242;10.438;2022-09-17T10:48:37;14.90;99.90
18506;DHT22;9382;53.242;10.438;2022-09-17T10:51:06;15.00;99.90
18506;DHT22;9382;53.242;10.438;2022-09-17T10:53:52;14.70;99.90
18506;DHT22;9382;53.242;10.438;2022-09-17T10:56:23;14.30;99.90
18506;DHT22;9382;53.242;10.438;2022-09-17T10:58:57;14.40;99.90
18506;DHT22;9382;53.242;10.438;2022-09-17T11:01:36;14.30;99.90
18506;DHT22;9382;53.242;10.438;2022-09-17T11:04:19;14.20;99.90
18506;DHT22;9382;53.242;10.438;2022-09-17T11:07:00;14.50;99.90
18506;DHT22;9382;53.242;10.438;2022-09-17T11:09:38;15.20;99.90
18506;DHT22;9382;53.242;10.438;2022-09-17T11:12:24;15.90;99.90
18506;DHT22;9382;53.242;10.438;2022-09-17T11:14:57;16.10;99.90
18506;DHT22;9382;53.242;10.438;2022-09-17T11:17:39;16.40;99.90
18506;DHT22;9382;53.242;10.438;2022-09-17T11:20:20;16.90;99.90
18506;DHT22;9382;53.242;10.438;2022-09-17T11:22:57;17.30;99.90
18506;DHT22;9382;53.242;10.438;2022-09-17T11:25:37;17.30;99.90
18506;DHT22;9382;53.242;10.438;2022-09-17T11:28:23;16.40;99.90
18506;DHT22;9382;53.242;10.438;2022-09-17T11:31:00;16.10;99.90
18506;DHT22;9382;53.242;10.438;2022-09-17T11:33:46;16.10;99.90
18506;DHT22;9382;53.242;10.438;2022-09-17T11:36:22;15.50;99.90
18506;DHT22;9382;53.242;10.438;2022-09-17T11:38:53;15.40;99.90
18506;DHT22;9382;53.242;10.438;2022-09-17T11:41:24;15.50;99.90
18506;DHT22;9382;53.242;10.438;2022-09-17T11:44:02;15.10;99.90
18506;DHT22;9382;53.242;10.438;2022-09-17T11:46:37;14.80;99.90
18506;DHT22;9382;53.242;10.438;2022-09-17T11:49:12;14.10;99.90
18506;DHT22;9382;53.242;10.438;2022-09-17T11:51:45;13.60;99.90
18506;DHT22;9382;53.242;10.438;2022-09-17T11:54:18;13.40;99.90
18506;DHT22;9382;53.242;10.438;2022-09-17T11:56:49;13.10;99.90
18506;DHT22;9382;53.242;10.438;2022-09-17T11:59:20;13.00;99.90
18506;DHT22;9382;53.242;10.438;2022-09-17T12:01:52;13.20;99.90
18506;DHT22;9382;53.242;10.438;2022-09-17T12:04:41;13.40;99.90
18506;DHT22;9382;53.242;10.438;2022-09-17T12:07:18;13.60;99.90
18506;DHT22;9382;53.242;10.438;2022-09-17T12:09:50;13.60;99.90
18506;DHT22;9382;53.242;10.438;2022-09-17T12:12:21;13.60;99.90
18506;DHT22;9382;53.242;10.438;2022-09-17T12:14:52;13.40;99.90
18506;DHT22;9382;53.242;10.438;2022-09-17T12:17:23;13.20;99.90
18506;DHT22;9382;53.242;10.438;2022-09-17T12:19:55;12.90;99.90
18506;DHT22;9382;53.242;10.438;2022-09-17T12:22:25;12.90;99.90
18506;DHT22;9382;53.242;10.438;2022-09-17T12:24:53;12.80;99.90
18506;DHT22;9382;53.242;10.438;2022-09-17T12:27:29;12.70;99.90
18506;DHT22;9382;53.242;10.438;2022-09-17T12:30:09;12.80;99.90
18506;DHT22;9382;53.242;10.438;2022-09-17T12:32:56;12.70;99.90
18506;DHT22;9382;53.242;10.438;2022-09-17T12:38:23;12.70;99.90
18506;DHT22;9382;53.242;10.438;2022-09-17T12:40:56;13.20;99.90
18506;DHT22;9382;53.242;10.438;2022-09-17T12:43:45;13.40;99.90
18506;DHT22;9382;53.242;10.438;2022-09-17T12:46:25;13.50;99.90
18506;DHT22;9382;53.242;10.438;2022-09-17T12:49:21;13.40;99.90
18506;DHT22;9382;53.242;10.438;2022-09-17T12:51:56;13.30;99.90
18506;DHT22;9382;53.242;10.438;2022-09-17T12:54:39;13.10;99.90
18506;DHT22;9382;53.242;10.438;2022-09-17T12:57:17;12.80;99.90
18506;DHT22;9382;53.242;10.438;2022-09-17T12:59:51;12.70;99.90
18506;DHT22;9382;53.242;10.438;2022-09-17T13:02:26;12.60;99.90
18506;DHT22;9382;53.242;10.438;2022-09-17T13:05:08;12.60;99.90
18506;DHT22;9382;53.242;10.438;2022-09-17T13:08:06;12.60;99.90
18506;DHT22;9382;53.242;10.438;2022-09-17T13:10:58;12.50;99.90
18506;DHT22;9382;53.242;10.438;2022-09-17T13:13:35;12.40;99.90
18506;DHT22;9382;53.242;10.438;2022-09-17T13:16:08;12.50;99.90
18506;DHT22;9382;53.242;10.438;2022-09-17T13:18:38;12.40;99.90
18506;DHT22;9382;53.242;10.438;2022-09-17T13:21:10;12.20;99.90
18506;DHT22;9382;53.242;10.438;2022-09-17T13:23:40;12.10;99.90
18506;DHT22;9382;53.242;10.438;2022-09-17T13:26:10;12.30;99.90
18506;DHT22;9382;53.242;10.438;2022-09-17T13:28:43;12.40;99.90
18506;DHT22;9382;53.242;10.438;2022-09-17T13:31:11;12.50;99.90
18506;DHT22;9382;53.242;10.438;2022-09-17T13:33:49;12.50;99.90
18506;DHT22;9382;53.242;10.438;2022-09-17T13:36:42;12.40;99.90
18506;DHT22;9382;53.242;10.438;2022-09-17T13:39:30;12.40;99.90
18506;DHT22;9382;53.242;10.438;2022-09-17T13:42:03;12.40;99.90
18506;DHT22;9382;53.242;10.438;2022-09-17T13:44:33;12.50;99.90
18506;DHT22;9382;53.242;10.438;2022-09-17T13:47:09;12.90;99.90
18506;DHT22;9382;53.242;10.438;2022-09-17T13:49:44;13.70;99.90
18506;DHT22;9382;53.242;10.438;2022-09-17T13:52:11;16.30;99.90
18506;DHT22;9382;53.242;10.438;2022-09-17T13:54:38;18.00;99.90
18506;DHT22;9382;53.242;10.438;2022-09-17T13:57:09;20.20;99.90
18506;DHT22;9382;53.242;10.438;2022-09-17T13:59:37;20.80;99.90
18506;DHT22;9382;53.242;10.438;2022-09-17T14:05:34;18.50;99.90
18506;DHT22;9382;53.242;10.438;2022-09-17T14:08:11;17.30;99.90
18506;DHT22;9382;53.242;10.438;2022-09-17T14:10:42;17.50;99.90
18506;DHT22;9382;53.242;10.438;2022-09-17T14:13:42;18.10;99.90
18506;DHT22;9382;53.242;10.438;2022-09-17T14:19:28;16.80;99.90
18506;DHT22;9382;53.242;10.438;2022-09-17T14:21:59;16.40;99.90
18506;DHT22;9382;53.242;10.438;2022-09-17T14:24:33;17.70;99.90
18506;DHT22;9382;53.242;10.438;2022-09-17T14:27:13;19.00;99.90
18506;DHT22;9382;53.242;10.438;2022-09-17T14:30:04;20.30;99.90
18506;DHT22;9382;53.242;10.438;2022-09-17T14:32:37;21.30;99.90
18506;DHT22;9382;53.242;10.438;2022-09-17T14:35:16;20.60;99.90
18506;DHT22;9382;53.242;10.438;2022-09-17T14:37:48;19.20;99.90
18506;DHT22;9382;53.242;10.438;2022-09-17T14:40:17;18.10;99.90
18506;DHT22;9382;53.242;10.438;2022-09-17T14:42:45;17.10;99.90
18506;DHT22;9382;53.242;10.438;2022-09-17T14:45:18;16.20;99.90
18506;DHT22;9382;53.242;10.438;2022-09-17T14:47:46;16.30;99.90
18506;DHT22;9382;53.242;10.438;2022-09-17T14:50:20;16.10;99.90
18506;DHT22;9382;53.242;10.438;2022-09-17T14:52:48;15.70;99.90
18506;DHT22;9382;53.242;10.438;2022-09-17T14:55:20;15.40;99.90
18506;DHT22;9382;53.242;10.438;2022-09-17T14:57:50;15.80;99.90
18506;DHT22;9382;53.242;10.438;2022-09-17T15:00:21;16.00;99.90
18506;DHT22;9382;53.242;10.438;2022-09-17T15:02:50;15.70;99.90
18506;DHT22;9382;53.242;10.438;2022-09-17T15:05:22;15.60;99.90
18506;DHT22;9382;53.242;10.438;2022-09-17T15:07:50;15.40;99.90
18506;DHT22;9382;53.242;10.438;2022-09-17T15:10:19;15.20;99.90
18506;DHT22;9382;53.242;10.438;2022-09-17T15:12:47;15.10;99.90
18506;DHT22;9382;53.242;10.438;2022-09-17T15:15:19;14.90;99.90
18506;DHT22;9382;53.242;10.438;2022-09-17T15:17:47;14.50;99.90
18506;DHT22;9382;53.242;10.438;2022-09-17T15:20:17;14.10;99.90
18506;DHT22;9382;53.242;10.438;2022-09-17T15:22:49;14.00;99.90
18506;DHT22;9382;53.242;10.438;2022-09-17T15:25:20;13.80;99.90
18506;DHT22;9382;53.242;10.438;2022-09-17T15:27:50;13.70;99.90
18506;DHT22;9382;53.242;10.438;2022-09-17T15:30:21;13.60;99.90
18506;DHT22;9382;53.242;10.438;2022-09-17T15:32:50;13.50;99.90
18506;DHT22;9382;53.242;10.438;2022-09-17T15:35:24;13.40;99.90
18506;DHT22;9382;53.242;10.438;2022-09-17T15:37:55;13.30;99.90
18506;DHT22;9382;53.242;10.438;2022-09-17T15:40:27;13.20;99.90
18506;DHT22;9382;53.242;10.438;2022-09-17T15:43:01;13.00;99.90
18506;DHT22;9382;53.242;10.438;2022-09-17T15:45:31;12.90;99.90
18506;DHT22;9382;53.242;10.438;2022-09-17T15:48:02;12.80;99.90
18506;DHT22;9382;53.242;10.438;2022-09-17T15:50:30;12.80;99.90
18506;DHT22;9382;53.242;10.438;2022-09-17T15:53:12;12.70;99.90
18506;DHT22;9382;53.242;10.438;2022-09-17T15:55:40;12.70;99.90
18506;DHT22;9382;53.242;10.438;2022-09-17T15:58:21;12.70;99.90
18506;DHT22;9382;53.242;10.438;2022-09-17T16:04:26;12.60;99.90
18506;DHT22;9382;53.242;10.438;2022-09-17T16:09:45;12.50;99.90
18506;DHT22;9382;53.242;10.438;2022-09-17T16:12:15;12.50;99.90
18506;DHT22;9382;53.242;10.438;2022-09-17T16:14:47;12.50;99.90
18506;DHT22;9382;53.242;10.438;2022-09-17T16:17:32;12.40;99.90
18506;DHT22;9382;53.242;10.438;2022-09-17T16:20:07;12.30;99.90